createdAt,value
2022-09-04T00:00:20.617Z,11.677476
2022-09-04T00:05:22.075Z,11.597592
2022-09-04T00:10:23.653Z,11.25469
2022-09-04T00:15:25.746Z,11.965218
2022-09-04T00:20:27.172Z,11.832114
2022-09-04T00:25:28.589Z,11.484178
2022-09-04T00:30:30.085Z,11.585678
2022-09-04T00:35:31.659Z,11.872986
2022-09-04T00:40:33.242Z,11.26925
2022-09-04T00:45:35.038Z,11.547724
2022-09-04T00:50:36.577Z,11.523896
2022-09-04T00:55:38.370Z,11.267214
2022-09-04T01:00:40.297Z,10.776458
2022-09-04T01:05:42.168Z,11.048692
2022-09-04T01:10:45.029Z,10.671812
2022-09-04T01:15:46.733Z,11.038108
2022-09-04T01:20:48.152Z,10.856004
2022-09-04T01:25:49.600Z,10.903674
2022-09-04T01:30:51.115Z,11.299538
2022-09-04T01:35:52.644Z,10.556892
2022-09-04T01:40:54.309Z,10.467306
2022-09-04T01:45:56.103Z,9.800758
2022-09-04T01:50:57.598Z,10.440508
2022-09-04T01:55:59.128Z,9.628032
2022-09-04T02:01:00.971Z,9.793092
2022-09-04T02:06:04.194Z,9.512406
2022-09-04T02:11:05.982Z,9.824858
2022-09-04T02:16:08.008Z,9.168188
2022-09-04T02:21:09.809Z,9.486814
2022-09-04T02:26:11.602Z,9.615398
2022-09-04T02:31:13.670Z,9.899884
2022-09-04T02:36:15.660Z,9.289988
2022-09-04T02:41:17.395Z,9.36192
2022-09-04T02:46:19.499Z,8.970752
2022-09-04T02:51:21.319Z,8.422924
2022-09-04T02:56:23.093Z,9.228492
2022-09-04T03:01:24.919Z,8.782164
2022-09-04T03:06:27.087Z,8.864122
2022-09-04T03:11:28.949Z,9.146124
2022-09-04T03:16:31.290Z,10.250738
2022-09-04T03:21:33.136Z,9.840028
2022-09-04T03:26:35.091Z,9.45388
2022-09-04T03:31:37.107Z,9.539218
2022-09-04T03:36:39.029Z,9.680884
2022-09-04T03:41:41.094Z,9.595818
2022-09-04T03:46:43.467Z,8.611526
2022-09-04T03:51:44.994Z,8.2442
2022-09-04T03:56:46.735Z,8.887068
2022-09-04T04:01:48.446Z,8.940912
2022-09-04T04:06:50.006Z,8.221416
2022-09-04T04:11:51.682Z,8.155062
2022-09-04T04:16:56.151Z,8.746732
2022-09-04T04:21:58.214Z,8.314368
2022-09-04T04:27:00.000Z,8.192568
2022-09-04T04:32:01.848Z,8.209774
2022-09-04T04:37:03.497Z,8.694938
2022-09-04T04:42:05.408Z,8.22185
2022-09-04T04:47:07.484Z,8.410414
2022-09-04T04:52:09.274Z,8.698032
2022-09-04T04:57:11.266Z,8.6342
2022-09-04T05:02:13.283Z,8.830254
2022-09-04T05:07:15.178Z,9.081682
2022-09-04T05:12:17.035Z,9.263066
2022-09-04T05:17:19.113Z,9.546832
2022-09-04T05:22:20.903Z,9.425032
2022-09-04T05:27:22.764Z,10.01684
2022-09-04T05:32:24.731Z,9.965642
2022-09-04T05:37:26.547Z,11.233714
2022-09-04T05:42:28.637Z,10.681352
2022-09-04T05:47:30.930Z,11.831886
2022-09-04T05:52:32.732Z,11.877344
2022-09-04T05:57:34.500Z,12.896266
2022-09-04T06:02:36.298Z,12.590246
2022-09-04T06:07:38.308Z,13.573874
2022-09-04T06:12:40.053Z,13.125034
2022-09-04T06:17:42.255Z,14.073192
2022-09-04T06:22:44.154Z,15.252902
2022-09-04T06:27:50.386Z,15.724158
2022-09-04T06:32:51.917Z,16.515846
2022-09-04T06:37:53.576Z,16.292966
2022-09-04T06:42:55.254Z,16.749758
2022-09-04T06:47:56.891Z,17.66858
2022-09-04T06:53:01.080Z,17.849814
2022-09-04T06:58:05.620Z,18.649998
2022-09-04T07:03:07.210Z,19.65473
2022-09-04T07:08:08.675Z,20.025926
2022-09-04T07:13:10.588Z,20.478064
2022-09-04T07:18:12.462Z,20.536074
2022-09-04T07:23:13.865Z,21.823814
2022-09-04T07:28:15.294Z,21.604896
2022-09-04T07:33:16.957Z,21.504264
2022-09-04T07:38:18.483Z,22.084662
2022-09-04T07:43:20.279Z,23.135776
2022-09-04T07:48:22.464Z,23.494122
2022-09-04T07:53:23.947Z,23.111202
2022-09-04T07:58:25.783Z,24.358356
2022-09-04T08:03:27.528Z,23.748552
2022-09-04T08:08:29.208Z,23.692116
2022-09-04T08:13:31.064Z,24.657566
2022-09-04T08:18:32.684Z,23.90235
2022-09-04T08:23:34.410Z,24.731086
2022-09-04T08:28:35.855Z,25.101156
2022-09-04T08:33:37.557Z,24.778702
2022-09-04T08:38:39.001Z,25.438144
2022-09-04T08:43:40.427Z,25.224952
2022-09-04T08:53:52.629Z,25.429798
2022-09-04T08:58:55.403Z,25.68203
2022-09-04T09:03:57.481Z,25.940002
2022-09-04T09:08:59.407Z,25.87693
2022-09-04T09:14:01.961Z,26.326872
2022-09-04T09:19:04.033Z,26.65394
2022-09-04T09:24:05.892Z,27.071234
2022-09-04T09:29:07.631Z,26.55567
2022-09-04T09:34:10.327Z,27.629406
2022-09-04T09:39:12.333Z,27.466082
2022-09-04T09:44:14.199Z,27.177376
2022-09-04T09:49:15.944Z,26.602498
2022-09-04T09:54:17.985Z,27.226442
2022-09-04T09:59:19.543Z,27.081858
2022-09-04T10:04:21.426Z,27.841268
2022-09-04T10:09:22.866Z,27.240284
2022-09-04T10:14:25.345Z,27.17363
2022-09-04T10:19:27.289Z,27.53317
2022-09-04T10:24:29.245Z,27.655854
2022-09-04T10:29:31.016Z,28.376876
2022-09-04T10:34:32.863Z,28.732236
2022-09-04T10:39:34.863Z,27.758764
2022-09-04T10:44:36.779Z,27.664062
2022-09-04T10:49:38.763Z,27.800424
2022-09-04T10:54:41.016Z,27.97037
2022-09-04T10:59:45.576Z,27.748344
2022-09-04T11:04:47.146Z,28.046088
2022-09-04T11:09:48.738Z,28.918954
2022-09-04T11:14:50.306Z,28.302948
2022-09-04T11:19:51.740Z,28.406036
2022-09-04T11:24:53.549Z,28.681024
2022-09-04T11:29:55.391Z,26.961794
2022-09-04T11:34:56.842Z,28.050946
2022-09-04T11:39:58.613Z,28.15641
2022-09-04T11:45:00.256Z,27.876182
2022-09-04T11:50:01.746Z,27.776596
2022-09-04T11:55:03.426Z,27.519248
2022-09-04T12:00:05.265Z,27.425238
2022-09-04T12:05:06.948Z,28.530484
2022-09-04T12:10:08.639Z,27.904368
2022-09-04T12:15:10.502Z,27.650384
2022-09-04T12:20:12.148Z,27.118048
2022-09-04T12:25:15.942Z,27.61836
2022-09-04T12:30:17.614Z,27.593854
2022-09-04T12:35:19.274Z,27.694526
2022-09-04T12:40:20.981Z,27.904164
2022-09-04T12:45:22.871Z,27.87815
2022-09-04T12:50:24.569Z,27.32348
2022-09-04T12:55:26.445Z,27.140086
2022-09-04T13:00:42.026Z,27.197512
2022-09-04T13:05:53.388Z,27.521704
2022-09-04T13:10:55.948Z,27.03484
2022-09-04T13:15:57.843Z,26.932674
2022-09-04T13:20:59.702Z,27.486586
2022-09-04T13:26:01.578Z,27.549304
2022-09-04T13:31:03.077Z,27.313126
2022-09-04T13:36:04.803Z,26.470046
2022-09-04T13:41:06.442Z,26.261982
2022-09-04T13:46:08.150Z,26.97284
2022-09-04T13:51:13.614Z,26.363062
2022-09-04T13:56:16.277Z,26.71309
2022-09-04T14:01:18.075Z,26.643994
2022-09-04T14:06:20.163Z,26.167972
2022-09-04T14:11:21.946Z,25.811118
2022-09-04T14:16:23.803Z,26.357974
2022-09-04T14:21:25.595Z,26.044136
2022-09-04T14:26:27.714Z,25.402388
2022-09-04T14:31:32.665Z,26.109908
2022-09-04T14:36:35.746Z,25.9506
2022-09-04T14:41:37.551Z,25.162274
2022-09-04T14:46:39.364Z,25.410978
2022-09-04T14:51:41.375Z,25.29645
2022-09-04T14:56:43.352Z,24.964728
2022-09-04T15:01:45.338Z,24.624456
2022-09-04T15:07:07.759Z,24.484784
2022-09-04T15:12:24.191Z,24.139818
2022-09-04T15:17:26.611Z,24.286804
2022-09-04T15:22:28.489Z,24.181558
2022-09-04T15:27:30.409Z,24.41372
2022-09-04T15:32:32.193Z,23.54817
2022-09-04T15:37:33.637Z,23.345522
2022-09-04T15:42:35.074Z,23.873908
2022-09-04T15:47:36.522Z,23.62188
2022-09-04T15:52:37.937Z,23.017178
2022-09-04T15:57:39.833Z,22.674234
2022-09-04T16:02:41.304Z,22.541822
2022-09-04T16:07:43.373Z,22.417592
2022-09-04T16:12:44.810Z,22.32289
2022-09-04T16:17:46.588Z,21.672798
2022-09-04T16:22:48.258Z,21.541716
2022-09-04T16:27:50.160Z,21.143598
2022-09-04T16:32:51.691Z,21.29057
2022-09-04T16:37:53.426Z,20.896428
2022-09-04T16:42:55.315Z,20.719942
2022-09-04T16:47:57.183Z,20.700714
2022-09-04T16:53:13.376Z,20.527878
2022-09-04T16:58:16.260Z,20.269676
2022-09-04T17:03:18.049Z,20.065386
2022-09-04T17:08:22.877Z,20.23027
2022-09-04T17:13:27.677Z,19.989288
2022-09-04T17:18:29.976Z,19.713432
2022-09-04T17:28:57.900Z,19.930396
2022-09-04T17:40:42.841Z,19.132858
2022-09-04T17:46:02.590Z,19.038224
2022-09-04T17:51:04.318Z,18.810038
2022-09-04T17:56:06.722Z,18.384998
2022-09-04T18:01:15.376Z,18.438232
2022-09-04T18:06:18.059Z,18.442818
2022-09-04T18:11:20.019Z,18.481478
2022-09-04T18:16:21.572Z,18.334954
2022-09-04T18:21:23.411Z,18.02706
2022-09-04T18:26:24.950Z,18.018756
2022-09-04T18:37:07.811Z,17.56081
2022-09-04T18:50:05.024Z,17.788806
2022-09-04T18:55:43.400Z,17.72948
2022-09-04T19:00:45.414Z,17.18283
2022-09-04T19:05:47.420Z,17.554012
2022-09-04T19:10:49.159Z,17.481008
2022-09-04T19:15:50.809Z,17.222372
2022-09-04T19:20:52.260Z,16.885616
2022-09-04T19:25:55.112Z,16.785866
2022-09-04T19:30:56.865Z,16.401454
2022-09-04T19:35:58.295Z,16.241252
2022-09-04T19:46:19.375Z,16.136726
2022-09-04T19:53:30.487Z,15.854276
2022-09-04T19:58:42.046Z,16.00388
2022-09-04T20:03:46.266Z,15.207876
2022-09-04T20:08:48.248Z,15.342486
2022-09-04T20:13:53.197Z,15.787012
2022-09-04T20:18:54.700Z,15.28008
2022-09-04T20:23:56.609Z,15.586196
2022-09-04T20:28:58.019Z,15.134166
2022-09-04T20:33:59.665Z,14.998498
2022-09-04T20:39:01.413Z,14.926118
2022-09-04T20:44:03.161Z,14.655582
2022-09-04T20:52:48.682Z,15.190928
2022-09-04T21:00:51.575Z,14.861948
2022-09-04T21:08:17.726Z,14.924884
2022-09-04T21:13:19.623Z,14.42547
2022-09-04T21:18:21.380Z,14.295446
2022-09-04T21:23:23.237Z,14.289802
2022-09-04T21:28:25.383Z,14.1702
2022-09-04T21:33:29.942Z,14.14857
2022-09-04T21:38:33.263Z,14.122978
2022-09-04T21:43:35.675Z,13.980416
2022-09-04T21:48:38.110Z,13.495128
2022-09-04T21:53:43.110Z,13.649862
2022-09-04T22:02:44.809Z,13.800796
2022-09-04T22:13:24.663Z,13.340924
2022-09-04T22:18:38.824Z,13.424784
2022-09-04T22:23:40.570Z,13.31445
2022-09-04T22:28:42.482Z,13.145414
2022-09-04T22:33:48.246Z,13.182038
2022-09-04T22:39:18.684Z,13.317978
2022-09-04T22:44:20.143Z,13.735582
2022-09-04T22:49:21.962Z,13.282942
2022-09-04T22:54:23.818Z,13.039056
2022-09-04T22:59:26.854Z,13.064472
2022-09-04T23:04:29.362Z,13.257174
2022-09-04T23:13:47.437Z,12.918668
2022-09-04T23:23:22.611Z,12.779648
2022-09-04T23:31:42.068Z,12.356142
2022-09-04T23:36:44.228Z,12.030976
2022-09-04T23:41:52.820Z,12.00936
2022-09-04T23:46:55.011Z,11.61967
2022-09-04T23:51:56.474Z,11.344438
2022-09-04T23:56:58.617Z,11.323704
